createdAt,value
2022-09-09T00:00:32.716Z,13.30
2022-09-09T00:03:20.517Z,13.30
2022-09-09T00:06:24.115Z,13.30
2022-09-09T00:09:13.851Z,13.30
2022-09-09T00:12:04.434Z,13.20
2022-09-09T00:14:52.648Z,13.20
2022-09-09T00:17:40.883Z,13.20
2022-09-09T00:20:39.665Z,13.20
2022-09-09T00:23:40.235Z,12.20
2022-09-09T00:26:36.652Z,13.20
2022-09-09T00:29:28.127Z,13.20
2022-09-09T00:32:15.323Z,13.20
2022-09-09T00:35:17.037Z,13.20
2022-09-09T00:38:05.495Z,13.10
2022-09-09T00:40:53.204Z,13.20
2022-09-09T00:43:40.094Z,13.10
2022-09-09T00:46:42.755Z,13.10
2022-09-09T00:49:31.313Z,13.10
2022-09-09T00:52:22.525Z,13.10
2022-09-09T00:55:20.345Z,13.10
2022-09-09T00:58:09.037Z,13.20
2022-09-09T01:01:07.741Z,13.30
2022-09-09T01:03:59.877Z,13.30
2022-09-09T01:06:49.341Z,13.40
2022-09-09T01:09:52.733Z,13.40
2022-09-09T01:12:44.790Z,13.40
2022-09-09T01:15:32.131Z,13.40
2022-09-09T01:18:18.914Z,13.40
2022-09-09T01:21:08.857Z,13.40
2022-09-09T01:24:16.473Z,13.50
2022-09-09T01:27:06.521Z,13.40
2022-09-09T01:29:51.709Z,13.40
2022-09-09T01:32:39.364Z,13.40
2022-09-09T01:35:27.599Z,13.30
2022-09-09T01:38:13.038Z,13.30
2022-09-09T01:40:59.473Z,13.30
2022-09-09T01:43:44.639Z,13.30
2022-09-09T01:46:30.440Z,13.40
2022-09-09T01:49:16.986Z,13.30
2022-09-09T01:52:02.543Z,13.30
2022-09-09T01:54:47.926Z,13.30
2022-09-09T01:57:39.531Z,13.30
2022-09-09T02:00:24.672Z,13.20
2022-09-09T02:03:28.000Z,13.30
2022-09-09T02:06:24.081Z,13.30
2022-09-09T02:09:11.632Z,13.30
2022-09-09T02:12:18.340Z,13.30
2022-09-09T02:15:11.977Z,13.30
2022-09-09T02:17:58.711Z,13.40
2022-09-09T02:20:45.042Z,13.40
2022-09-09T02:23:31.279Z,13.40
2022-09-09T02:26:21.214Z,13.40
2022-09-09T02:29:09.023Z,13.40
2022-09-09T02:31:57.596Z,13.40
2022-09-09T02:34:48.857Z,13.40
2022-09-09T02:37:37.576Z,13.40
2022-09-09T02:40:23.121Z,13.40
2022-09-09T02:43:08.546Z,13.40
2022-09-09T02:46:19.906Z,13.40
2022-09-09T02:49:10.103Z,13.40
2022-09-09T02:52:01.294Z,13.40
2022-09-09T02:54:46.740Z,13.40
2022-09-09T02:57:32.780Z,13.40
2022-09-09T03:00:23.462Z,13.30
2022-09-09T03:03:10.215Z,13.30
2022-09-09T03:05:55.344Z,13.20
2022-09-09T03:08:41.641Z,13.20
2022-09-09T03:11:28.826Z,13.10
2022-09-09T03:14:14.159Z,13.10
2022-09-09T03:17:01.885Z,13.00
2022-09-09T03:19:47.016Z,13.00
2022-09-09T03:22:32.225Z,12.90
2022-09-09T03:25:17.287Z,12.80
2022-09-09T03:28:02.696Z,12.60
2022-09-09T03:30:48.138Z,12.50
2022-09-09T03:33:33.731Z,12.30
2022-09-09T03:36:18.823Z,12.10
2022-09-09T03:39:04.432Z,12.00
2022-09-09T03:41:49.460Z,11.80
2022-09-09T03:44:34.553Z,11.70
2022-09-09T03:47:20.399Z,11.60
2022-09-09T03:50:09.426Z,11.60
2022-09-09T03:52:54.837Z,11.50
2022-09-09T03:55:39.901Z,11.50
2022-09-09T03:58:25.150Z,11.40
2022-09-09T04:01:14.270Z,11.40
2022-09-09T04:03:59.564Z,11.30
2022-09-09T04:06:44.678Z,11.30
2022-09-09T04:09:29.898Z,11.30
2022-09-09T04:12:15.075Z,11.30
2022-09-09T04:15:00.540Z,11.30
2022-09-09T04:17:45.662Z,11.30
2022-09-09T04:20:31.209Z,11.20
2022-09-09T04:23:16.949Z,11.20
2022-09-09T04:26:02.745Z,11.20
2022-09-09T04:28:47.984Z,11.20
2022-09-09T04:31:33.202Z,11.20
2022-09-09T04:34:18.757Z,11.20
2022-09-09T04:37:04.018Z,11.20
2022-09-09T04:39:49.494Z,11.20
2022-09-09T04:42:37.965Z,11.20
2022-09-09T04:45:23.510Z,11.20
2022-09-09T04:48:09.091Z,11.20
2022-09-09T04:50:58.681Z,11.20
2022-09-09T04:53:44.615Z,11.20
2022-09-09T04:56:29.614Z,11.20
2022-09-09T04:59:14.731Z,11.20
2022-09-09T05:02:02.028Z,11.20
2022-09-09T05:04:47.416Z,11.20
2022-09-09T05:07:32.874Z,11.20
2022-09-09T05:10:19.047Z,11.20
2022-09-09T05:13:05.623Z,11.20
2022-09-09T05:15:54.412Z,11.20
2022-09-09T05:18:40.209Z,11.20
2022-09-09T05:21:27.629Z,11.10
2022-09-09T05:24:13.052Z,11.10
2022-09-09T05:27:00.072Z,11.20
2022-09-09T05:29:45.721Z,11.20
2022-09-09T05:32:33.313Z,11.10
2022-09-09T05:35:20.107Z,11.10
2022-09-09T05:38:05.477Z,11.10
2022-09-09T05:40:51.097Z,11.10
2022-09-09T05:43:36.778Z,11.10
2022-09-09T05:46:23.119Z,11.10
2022-09-09T05:49:09.263Z,11.20
2022-09-09T05:51:54.753Z,11.20
2022-09-09T05:54:40.071Z,11.20
2022-09-09T05:57:25.122Z,11.20
2022-09-09T06:00:10.604Z,11.10
2022-09-09T06:02:55.985Z,11.10
2022-09-09T06:05:41.516Z,11.00
2022-09-09T06:08:26.829Z,11.00
2022-09-09T06:11:13.327Z,11.00
2022-09-09T06:13:58.586Z,10.90
2022-09-09T06:16:45.160Z,10.90
2022-09-09T06:19:31.769Z,10.90
2022-09-09T06:22:17.713Z,10.90
2022-09-09T06:25:03.021Z,10.90
2022-09-09T06:27:51.231Z,10.90
2022-09-09T06:30:37.218Z,10.90
2022-09-09T06:33:22.520Z,10.90
2022-09-09T06:36:17.842Z,10.90
2022-09-09T06:39:03.232Z,10.90
2022-09-09T06:41:49.565Z,10.90
2022-09-09T06:44:35.620Z,10.90
2022-09-09T06:47:21.412Z,10.90
2022-09-09T06:50:08.299Z,10.90
2022-09-09T06:52:53.620Z,10.90
2022-09-09T06:55:38.778Z,10.90
2022-09-09T06:58:23.831Z,10.80
2022-09-09T07:01:09.800Z,10.90
2022-09-09T07:03:55.829Z,10.80
2022-09-09T07:06:44.122Z,10.90
2022-09-09T07:09:30.693Z,10.90
2022-09-09T07:12:16.254Z,10.80
2022-09-09T07:15:01.371Z,10.80
2022-09-09T07:17:46.512Z,10.70
2022-09-09T07:20:31.529Z,10.70
2022-09-09T07:23:17.203Z,10.60
2022-09-09T07:26:02.692Z,10.70
2022-09-09T07:28:48.362Z,10.70
2022-09-09T07:31:35.678Z,10.80
2022-09-09T07:34:20.965Z,10.80
2022-09-09T07:37:06.267Z,10.80
2022-09-09T07:39:52.217Z,10.70
2022-09-09T07:42:38.356Z,10.70
2022-09-09T07:45:23.823Z,10.70
2022-09-09T07:48:09.790Z,10.70
2022-09-09T07:51:03.996Z,10.70
2022-09-09T07:53:49.963Z,10.70
2022-09-09T07:56:35.407Z,10.70
2022-09-09T07:59:20.703Z,10.80
2022-09-09T08:02:06.011Z,10.80
2022-09-09T08:04:51.442Z,10.80
2022-09-09T08:07:36.940Z,10.80
2022-09-09T08:10:22.351Z,10.80
2022-09-09T08:13:17.817Z,10.80
2022-09-09T08:16:08.198Z,10.80
2022-09-09T08:18:53.748Z,10.80
2022-09-09T08:21:41.045Z,10.80
2022-09-09T08:24:26.993Z,10.70
2022-09-09T08:27:12.155Z,10.80
2022-09-09T08:29:57.600Z,10.80
2022-09-09T08:32:45.946Z,10.80
2022-09-09T08:35:33.686Z,10.80
2022-09-09T08:38:19.690Z,10.80
2022-09-09T08:41:11.854Z,10.90
2022-09-09T08:44:07.882Z,10.90
2022-09-09T08:47:03.476Z,10.90
2022-09-09T08:49:58.034Z,10.90
2022-09-09T08:52:46.494Z,10.90
2022-09-09T08:55:44.215Z,10.90
2022-09-09T08:58:31.043Z,10.90
2022-09-09T09:01:25.331Z,11.00
2022-09-09T09:04:30.147Z,11.00
2022-09-09T09:07:33.091Z,11.00
2022-09-09T09:10:41.709Z,11.10
2022-09-09T09:13:44.188Z,9.70
2022-09-09T09:16:42.062Z,11.30
2022-09-09T09:19:27.973Z,11.30
2022-09-09T09:22:27.517Z,11.20
2022-09-09T09:25:18.938Z,11.30
2022-09-09T09:28:13.248Z,11.30
2022-09-09T09:31:06.816Z,11.30
2022-09-09T09:33:54.204Z,11.40
2022-09-09T09:36:41.190Z,11.40
2022-09-09T09:42:33.104Z,11.30
2022-09-09T09:45:26.585Z,11.30
2022-09-09T09:48:15.074Z,11.30
2022-09-09T09:51:04.090Z,11.30
2022-09-09T09:53:50.579Z,11.30
2022-09-09T09:56:36.538Z,11.40
2022-09-09T09:59:38.616Z,11.40
2022-09-09T10:02:26.692Z,11.40
2022-09-09T10:05:41.578Z,11.40
2022-09-09T10:08:27.526Z,11.40
2022-09-09T10:11:12.802Z,11.50
2022-09-09T10:14:10.441Z,11.50
2022-09-09T10:16:58.307Z,11.50
2022-09-09T10:19:46.041Z,11.60
2022-09-09T10:22:35.193Z,11.50
2022-09-09T10:25:20.185Z,11.70
2022-09-09T10:28:19.144Z,11.80
2022-09-09T10:31:29.903Z,11.80
2022-09-09T10:34:18.184Z,11.90
2022-09-09T10:37:07.376Z,12.00
2022-09-09T10:39:59.464Z,11.90
2022-09-09T10:42:45.084Z,11.90
2022-09-09T10:45:35.762Z,11.90
2022-09-09T10:48:31.750Z,11.90
2022-09-09T10:51:32.135Z,11.90
2022-09-09T10:54:20.515Z,12.00
2022-09-09T10:57:09.936Z,12.00
2022-09-09T10:59:57.778Z,12.10
2022-09-09T11:02:45.880Z,12.10
2022-09-09T11:05:41.569Z,12.10
2022-09-09T11:08:27.938Z,12.20
2022-09-09T11:11:31.848Z,12.30
2022-09-09T11:14:23.212Z,12.40
2022-09-09T11:17:11.923Z,12.40
2022-09-09T11:19:57.318Z,12.40
2022-09-09T11:22:49.705Z,12.50
2022-09-09T11:25:46.893Z,12.50
2022-09-09T11:28:51.380Z,12.50
2022-09-09T11:31:45.436Z,12.50
2022-09-09T11:34:34.450Z,12.50
2022-09-09T11:37:46.318Z,12.40
2022-09-09T11:40:33.156Z,12.40
2022-09-09T11:43:22.945Z,12.40
2022-09-09T11:46:40.020Z,12.30
2022-09-09T11:49:53.912Z,12.30
2022-09-09T11:52:48.488Z,12.30
2022-09-09T11:55:35.693Z,12.30
2022-09-09T11:58:22.991Z,12.30
2022-09-09T12:01:26.533Z,12.30
2022-09-09T12:04:12.094Z,12.40
2022-09-09T12:06:59.445Z,12.40
2022-09-09T12:09:53.160Z,12.30
2022-09-09T12:12:43.675Z,12.30
2022-09-09T12:15:30.114Z,12.40
2022-09-09T12:18:22.922Z,12.40
2022-09-09T12:21:27.052Z,12.30
2022-09-09T12:24:14.065Z,12.30
2022-09-09T12:27:18.162Z,12.20
2022-09-09T12:30:05.715Z,12.30
2022-09-09T12:32:59.925Z,12.30
2022-09-09T12:35:49.066Z,12.20
2022-09-09T12:38:38.368Z,12.30
2022-09-09T12:41:25.336Z,12.30
2022-09-09T12:44:11.249Z,12.20
2022-09-09T12:47:00.302Z,12.30
2022-09-09T12:49:45.811Z,12.30
2022-09-09T12:52:37.368Z,12.40
2022-09-09T12:55:26.108Z,12.40
2022-09-09T12:58:14.598Z,12.40
2022-09-09T13:01:00.875Z,12.40
2022-09-09T13:03:46.666Z,12.40
2022-09-09T13:06:32.950Z,12.50
2022-09-09T13:09:18.461Z,12.40
2022-09-09T13:12:06.272Z,12.50
2022-09-09T13:14:53.299Z,12.50
2022-09-09T13:17:39.800Z,12.50
2022-09-09T13:20:25.998Z,12.40
2022-09-09T13:23:12.949Z,12.40
2022-09-09T13:25:59.570Z,12.40
2022-09-09T13:28:47.294Z,12.40
2022-09-09T13:31:34.877Z,12.40
2022-09-09T13:34:28.218Z,12.50
2022-09-09T13:37:29.020Z,12.40
2022-09-09T13:40:18.869Z,12.40
2022-09-09T13:43:04.452Z,12.40
2022-09-09T13:45:57.431Z,12.40
2022-09-09T13:48:42.548Z,12.40
2022-09-09T13:51:35.262Z,12.30
2022-09-09T13:54:21.494Z,12.20
2022-09-09T13:57:06.997Z,12.20
2022-09-09T14:00:04.688Z,12.20
2022-09-09T14:02:51.302Z,12.20
2022-09-09T14:05:36.602Z,12.20
2022-09-09T14:08:24.009Z,12.20
2022-09-09T14:11:12.046Z,12.20
2022-09-09T14:13:57.412Z,12.30
2022-09-09T14:16:42.551Z,12.20
2022-09-09T14:19:27.619Z,12.30
2022-09-09T14:22:13.313Z,12.40
2022-09-09T14:24:58.640Z,12.30
2022-09-09T14:27:44.326Z,12.30
2022-09-09T14:30:29.804Z,12.30
2022-09-09T14:33:16.201Z,12.30
2022-09-09T14:36:01.949Z,12.30
2022-09-09T14:38:47.334Z,12.30
2022-09-09T14:41:32.660Z,12.30
2022-09-09T14:44:17.612Z,12.30
2022-09-09T14:47:02.642Z,12.30
2022-09-09T14:49:50.448Z,12.30
2022-09-09T14:52:35.718Z,12.30
2022-09-09T14:55:20.875Z,12.30
2022-09-09T14:58:07.238Z,12.30
2022-09-09T15:00:52.556Z,12.20
2022-09-09T15:03:38.414Z,12.30
2022-09-09T15:06:24.141Z,12.30
2022-09-09T15:09:09.912Z,12.30
2022-09-09T15:11:55.292Z,12.30
2022-09-09T15:14:40.429Z,12.30
2022-09-09T15:17:26.803Z,12.30
2022-09-09T15:20:12.146Z,12.30
2022-09-09T15:22:57.516Z,12.30
2022-09-09T15:25:56.124Z,12.30
2022-09-09T15:28:41.309Z,12.30
2022-09-09T15:31:29.342Z,12.40
2022-09-09T15:34:15.021Z,12.30
2022-09-09T15:37:00.981Z,12.30
2022-09-09T15:39:46.382Z,12.30
2022-09-09T15:42:32.070Z,12.30
2022-09-09T15:45:17.273Z,12.30
2022-09-09T15:48:02.512Z,12.30
2022-09-09T15:50:47.964Z,12.30
2022-09-09T15:53:33.375Z,12.30
2022-09-09T15:56:18.863Z,12.30
2022-09-09T15:59:04.453Z,12.30
2022-09-09T16:01:52.281Z,12.30
2022-09-09T16:04:38.635Z,12.30
2022-09-09T16:07:23.790Z,12.30
2022-09-09T16:10:09.537Z,12.30
2022-09-09T16:12:54.937Z,12.20
2022-09-09T16:15:40.076Z,12.30
2022-09-09T16:18:25.849Z,12.30
2022-09-09T16:21:14.133Z,12.30
2022-09-09T16:24:01.006Z,12.30
2022-09-09T16:26:47.771Z,12.30
2022-09-09T16:29:33.418Z,12.30
2022-09-09T16:32:18.613Z,12.30
2022-09-09T16:35:03.971Z,12.30
2022-09-09T16:37:49.269Z,12.30
2022-09-09T16:40:42.213Z,12.30
2022-09-09T16:43:27.391Z,12.30
2022-09-09T16:46:17.574Z,12.30
2022-09-09T16:49:04.428Z,12.30
2022-09-09T16:51:50.447Z,12.30
2022-09-09T16:54:35.850Z,12.30
2022-09-09T16:57:20.862Z,12.30
2022-09-09T17:00:07.996Z,12.30
2022-09-09T17:02:53.505Z,12.30
2022-09-09T17:05:42.464Z,12.30
2022-09-09T17:08:27.904Z,12.30
2022-09-09T17:11:16.944Z,12.30
2022-09-09T17:14:02.364Z,12.30
2022-09-09T17:16:47.789Z,12.30
2022-09-09T17:19:32.998Z,12.30
2022-09-09T17:22:19.026Z,12.30
2022-09-09T17:25:04.506Z,12.30
2022-09-09T17:27:49.811Z,12.30
2022-09-09T17:30:35.969Z,12.30
2022-09-09T17:33:21.774Z,12.30
2022-09-09T17:36:12.155Z,12.30
2022-09-09T17:38:57.234Z,12.30
2022-09-09T17:41:42.298Z,12.30
2022-09-09T17:44:27.583Z,12.30
2022-09-09T17:47:12.818Z,12.30
2022-09-09T17:49:58.156Z,12.30
2022-09-09T17:52:43.446Z,12.30
2022-09-09T17:55:29.352Z,12.30
2022-09-09T17:58:14.682Z,12.30
2022-09-09T18:01:07.316Z,12.30
2022-09-09T18:03:52.964Z,12.30
2022-09-09T18:06:40.083Z,12.30
2022-09-09T18:09:26.488Z,12.30
2022-09-09T18:12:11.765Z,12.30
2022-09-09T18:14:59.103Z,12.30
2022-09-09T18:17:46.322Z,12.40
2022-09-09T18:20:31.599Z,12.40
2022-09-09T18:23:16.570Z,12.40
2022-09-09T18:26:01.688Z,12.40
2022-09-09T18:28:51.219Z,12.40
2022-09-09T18:31:37.916Z,12.40
2022-09-09T18:34:25.897Z,12.40
2022-09-09T18:37:11.346Z,12.50
2022-09-09T18:39:56.842Z,12.40
2022-09-09T18:42:42.238Z,12.40
2022-09-09T18:45:27.465Z,12.40
2022-09-09T18:48:12.783Z,12.50
2022-09-09T18:51:02.813Z,12.50
2022-09-09T18:53:52.738Z,12.40
2022-09-09T18:56:37.824Z,12.50
2022-09-09T18:59:23.950Z,12.50
2022-09-09T19:02:12.161Z,12.40
2022-09-09T19:04:57.922Z,12.50
2022-09-09T19:07:43.166Z,12.50
2022-09-09T19:10:28.278Z,12.50
2022-09-09T19:13:14.130Z,12.40
2022-09-09T19:16:06.655Z,12.50
2022-09-09T19:18:52.692Z,12.40
2022-09-09T19:21:39.167Z,12.50
2022-09-09T19:24:27.351Z,12.40
2022-09-09T19:27:12.737Z,12.50
2022-09-09T19:29:57.897Z,12.50
2022-09-09T19:32:53.100Z,12.50
2022-09-09T19:35:39.005Z,12.50
2022-09-09T19:38:25.054Z,12.50
2022-09-09T19:41:11.713Z,12.50
2022-09-09T19:44:01.964Z,12.50
2022-09-09T19:46:47.327Z,12.50
2022-09-09T19:49:33.213Z,12.50
2022-09-09T19:52:18.677Z,12.50
2022-09-09T19:55:04.044Z,12.50
2022-09-09T19:57:49.319Z,12.50
2022-09-09T20:00:39.381Z,12.50
2022-09-09T20:03:25.254Z,12.50
2022-09-09T20:06:12.115Z,12.50
2022-09-09T20:08:58.002Z,12.50
2022-09-09T20:11:44.029Z,12.50
2022-09-09T20:14:29.586Z,12.50
2022-09-09T20:17:14.802Z,12.50
2022-09-09T20:20:00.308Z,12.50
2022-09-09T20:22:45.231Z,12.50
2022-09-09T20:25:30.407Z,12.50
2022-09-09T20:28:15.418Z,12.50
2022-09-09T20:31:08.406Z,12.50
2022-09-09T20:33:54.953Z,12.50
2022-09-09T20:36:41.295Z,12.50
2022-09-09T20:39:27.835Z,12.50
2022-09-09T20:42:13.466Z,12.50
2022-09-09T20:44:58.501Z,12.50
2022-09-09T20:47:44.350Z,12.50
2022-09-09T20:50:30.923Z,12.50
2022-09-09T20:53:16.158Z,12.50
2022-09-09T20:56:02.492Z,12.50
2022-09-09T20:58:47.961Z,12.50
2022-09-09T21:01:33.131Z,12.50
2022-09-09T21:04:19.731Z,12.50
2022-09-09T21:07:04.946Z,12.50
2022-09-09T21:09:50.232Z,12.50
2022-09-09T21:12:35.454Z,12.50
2022-09-09T21:15:20.505Z,12.50
2022-09-09T21:18:05.619Z,12.50
2022-09-09T21:20:50.671Z,12.50
2022-09-09T21:23:36.072Z,12.50
2022-09-09T21:26:22.356Z,12.50
2022-09-09T21:29:07.484Z,12.50
2022-09-09T21:31:53.301Z,12.50
2022-09-09T21:34:38.635Z,12.50
2022-09-09T21:37:24.318Z,12.50
2022-09-09T21:40:09.810Z,12.50
2022-09-09T21:42:55.196Z,12.50
2022-09-09T21:45:40.952Z,12.50
2022-09-09T21:48:26.358Z,12.50
2022-09-09T21:51:14.103Z,12.50
2022-09-09T21:53:59.377Z,12.50
2022-09-09T21:56:44.505Z,12.40
2022-09-09T21:59:30.503Z,12.40
2022-09-09T22:02:16.708Z,12.40
2022-09-09T22:05:01.921Z,12.40
2022-09-09T22:07:47.047Z,12.40
2022-09-09T22:10:32.157Z,12.40
2022-09-09T22:13:17.482Z,12.40
2022-09-09T22:16:03.469Z,12.40
2022-09-09T22:18:53.846Z,12.40
2022-09-09T22:21:39.476Z,12.40
2022-09-09T22:24:27.484Z,12.40
2022-09-09T22:27:13.678Z,12.40
2022-09-09T22:29:59.040Z,12.50
2022-09-09T22:32:44.202Z,12.40
2022-09-09T22:35:29.340Z,12.30
2022-09-09T22:38:14.540Z,12.40
2022-09-09T22:40:59.685Z,12.40
2022-09-09T22:43:45.509Z,12.40
2022-09-09T22:46:30.805Z,11.80
2022-09-09T22:49:16.381Z,12.40
2022-09-09T22:52:01.512Z,12.40
2022-09-09T22:54:46.520Z,12.40
2022-09-09T22:57:31.629Z,12.40
2022-09-09T23:00:16.748Z,12.40
2022-09-09T23:03:01.853Z,12.40
2022-09-09T23:05:53.528Z,12.40
2022-09-09T23:08:38.936Z,12.40
2022-09-09T23:11:27.929Z,12.40
2022-09-09T23:14:13.605Z,12.40
2022-09-09T23:16:59.233Z,12.40
2022-09-09T23:19:44.381Z,12.40
2022-09-09T23:22:29.930Z,12.40
2022-09-09T23:25:15.120Z,12.40
2022-09-09T23:28:00.123Z,12.40
2022-09-09T23:30:45.321Z,12.40
2022-09-09T23:33:30.330Z,12.40
2022-09-09T23:36:16.511Z,12.40
2022-09-09T23:39:03.873Z,12.40
2022-09-09T23:41:50.307Z,12.40
2022-09-09T23:44:36.540Z,12.30
2022-09-09T23:47:22.211Z,12.30
2022-09-09T23:50:07.723Z,12.30
2022-09-09T23:52:53.071Z,12.30
2022-09-09T23:55:38.953Z,12.30
2022-09-09T23:58:24.027Z,12.30
